Notice: Undefined index: language in /home/spanairv/public_html/vam/index.php on line 25
Spanair Virtual

 INFORMACIÓN METAR y TAF
METAR FOR LIPZ
ADDS - METARS form results

(0627 UTC 21 March 2019)
Data provider http://aviationweather.gov/metar/data/
 
METAR text: LIPZ 210620Z 36006KT CAVOK 05/M03 Q1033 NOSIG
Conditions at: LIPZ (VENEZIA/TESSERA , IT) observed 0620 UTC 21 March 2019
Temperature: 5.0°C (41°F)
Dewpoint: -3.0°C (27°F) [RH = 56%]
Pressure (altimeter): 30.50 inches Hg (1033.0 mb)
Winds: from the N (360 degrees) at 7 MPH (6 knots; 3.1 m/s)
Visibility: 6 or more miles (10+ km)
Ceiling: ceiling and visibility are OK
Clouds: unknown
Weather: no significant weather observed at this time

METAR text: LIPZ 210550Z 36009KT CAVOK 05/M03 Q1033 NOSIG
Conditions at: LIPZ (VENEZIA/TESSERA , IT) observed 0550 UTC 21 March 2019
Temperature: 5.0°C (41°F)
Dewpoint: -3.0°C (27°F) [RH = 56%]
Pressure (altimeter): 30.50 inches Hg (1033.0 mb)
Winds: from the N (360 degrees) at 10 MPH (9 knots; 4.6 m/s)
Visibility: 6 or more miles (10+ km)
Ceiling: ceiling and visibility are OK
Clouds: unknown
Weather: no significant weather observed at this time

Forecast for: LIPZ (VENEZIA/TESSERA , IT)
Text: TAF LIPZ 210500Z 2106/2212 04010KT CAVOK
Forecast period: 0600 UTC 21 March 2019 to 1200 UTC 22 March 2019
Forecast type: FROM: standard forecast or significant change
Winds: from the NE (40 degrees) at 12 MPH (10 knots; 5.1 m/s)
Visibility: 6 or more miles 10+ km)
Ceiling: unknown
Clouds: missing
Weather: NSW  (no significant weather)

 MAPA DE AEROPUERTO

 INFORMACIÓN DE PISTA
Pista 04L Longitud 9121 ft Ancho 148 ft
Elevación 7 ft Umbral desplazado 308 ft Rumbo de pista 42
Pista 22R Longitud 9121 ft Ancho 148 ft
Elevación 7 ft Umbral desplazado 0 ft Rumbo de pista 222
Pista 04R Longitud 10827 ft Ancho 148 ft
Elevación 7 ft Umbral desplazado 0 ft Rumbo de pista 42
Pista 22L Longitud 10827 ft Ancho 148 ft
Elevación 7 ft Umbral desplazado 0 ft Rumbo de pista 222

 FRECUANCIAS DEL AEROPUERTO
Tipo APP Nombre APP Frecuencia 118.9 MHZ
Tipo ATIS Nombre ATIS Frecuencia 122.225 MHZ
Tipo GND Nombre GND Frecuencia 121.7 MHZ
Tipo TWR Nombre TWR Frecuencia 120.2 MHZ

 RADIO AYUDAS DEL AEROPUERTO
Tipo VOR-DME Nombre Tessera Frecuencia 115300 KHZ
Tipo NDB Nombre Venezia Frecuencia 379 KHZ





VAM [v2.6.2]

Normativa | Spanair Virtual © 2017 | Customized by JZ © 2017 for Spanair Virtual